x

South Hatteras - 225 South Of Cape Hatteras (41002) Wave Buoy

5:50 - Thu 19th Jan 2017 All times are EST. -5 hours from GMT.

  • Sig Wave height 6.9ft
  • Swell Direction
  • Peak Period 10s
  • Average Period 7s
  • Wind
    7mph, 9mph gusts
  • Sea Temp 72°f
  • Aire Temp 67°f
  • Sea Pressure 1016.1mb
  • South Hatteras - 225 South Of Cape Hatteras
  • South Hatteras - 225 South Of Cape Hatteras

More Historic Weather Station data

Upgrade to MSW Pro to gain access to the past 30 days of data for over 8000 Wavebouys and Weather Stations around the globe.

Join Pro

Comparision Forecast

View Surf forecast
   
jue 01/19 5:50 7ft 10s 7s 7 9 mph 1016.1mb 72f 67f
4:50 7ft 9s 7s 4 7 mph 1015.7mb 72f 67f
3:50 7ft 10s 7s 11 13 mph 1015.5mb 72f 67f
2:50 8ft 10s 7s 9 11 mph 1015.2mb 72f 67f
1:50 7ft 8s 7s 9 11 mph 1015.5mb 72f 67f
12:50 7ft 10s 7s 9 13 mph 1015.6mb 72f 67f
11:50 7ft 8s 7s 9 11 mph 1016.5mb 71f 67f
10:50 8ft 9s 7s 11 13 mph 1017.2mb 71f 67f
9:50 9ft 8s 7s 11 13 mph 1017.4mb 71f 67f
8:50 8ft 8s 7s 11 16 mph 1017mb 71f 67f
7:50 8ft 8s 7s 11 18 mph 1016.6mb 71f 67f
6:50 8ft 8s 6s 13 18 mph 1016.2mb 71f 67f
5:50 8ft 8s 6s 13 18 mph 1015.7mb 71f 67f
4:50 7.5ft 8s 6s 13 18 mph 1015.1mb 71f 67f
3:50 8ft 8s 6s 18 20 mph 1014.7mb 72f 67f
2:50 8ft 7s 6s 18 22 mph 1014.7mb 72f 67f
1:50 8ft 8s 6s 18 22 mph 1014.8mb 72f 68f
12:50 8ft 8s 6s 25 29 mph 1014.4mb 72f 68f
mié 01/18 11:50 8.5ft 8s 6s 25 29 mph 1014.5mb 72f 68f
10:50 9ft 8s 6s 25 29 mph 1014.5mb 72f 69f
9:50 9ft 8s 6s 25 29 mph 1014.1mb 72f 72f
8:50 9ft 8s 6s 25 34 mph 1013.7mb 72f 73f
7:50 9ft 8s 6s 25 31 mph 1013.5mb 72f 70f
6:50 8ft 7s 6s 27 34 mph 1012.1mb 72f 73f
5:50 8ft 7s 6s 25 29 mph 1012.4mb 72f 73f
4:50 9ft 7s 6s 22 29 mph 1013mb 72f 72f
3:50 7ft 7s 6s 22 27 mph 1013.8mb 72f 72f
2:50 7ft 6s 6s 20 25 mph 1013.9mb 72f 73f
1:50 7ft 6s 5s 22 27 mph 1014.5mb 72f 72f
12:50 7ft 7s 5s 25 31 mph 1015.5mb 72f 73f
11:50 6ft 7s 5s 18 22 mph 1017.2mb 71f 71f
10:50 5.5ft 6s 5s 20 29 mph 1018.6mb 71f 70f
9:50 6ft 6s 5s 20 25 mph 1019.1mb 71f 72f
8:50 5ft 6s 5s 18 22 mph 1019.1mb 71f 73f
7:50 5ft 5s 5s 16 20 mph 1019.2mb 72f 71f
6:50 5ft 5s 5s 18 22 mph 1019.2mb 72f 71f
5:50 4.5ft 5s 5s 18 20 mph 1019.3mb 72f 73f
4:50 4.5ft 5s 5s 20 25 mph 1019.3mb 72f 72f
3:50 4.5ft 5s 5s 20 22 mph 1019.7mb 72f 72f
2:50 3.5ft 5s 4s 20 25 mph 1020.4mb 72f 72f
1:50 3.5ft 8s 5s 20 22 mph 1020.8mb 72f 72f
12:50 3.5ft 4s 5s 18 22 mph 1021.7mb 72f 72f
mar 01/17 11:50 3.5ft 9s 5s 16 18 mph 1022.5mb 72f 72f
10:50 3.5ft 10s 5s 13 16 mph 1023.3mb 72f 72f
9:50 3.5ft 8s 5s 13 16 mph 1023.7mb 72f 72f
8:50 3.5ft 10s 5s 13 16 mph 1023.4mb 72f 72f
7:50 3ft 8s 5s 13
mph
1024.1mb 72f 72f
6:50 3ft 8s 5s 13 16 mph 1024.4mb 72f 72f
5:50 3.5ft 8s 5s 13 16 mph 1024.1mb 71f 72f
4:50 3.5ft 8s 5s 11 13 mph 1023.8mb 72f 72f
3:50 3.5ft 9s 5s 11 13 mph 1023.8mb 72f 73f
2:50 3.5ft 8s 5s 13 16 mph 1023.7mb 72f 72f
1:50 3.5ft 10s 5s 13 16 mph 1024mb 72f 72f
12:50 3.5ft 9s 5s 13 16 mph 1024.1mb 72f 72f
11:50 3.5ft 9s 5s 16 18 mph 1024.9mb 72f 72f
10:50 3.5ft 8s 5s 16 18 mph 1025.9mb 72f 72f
9:50 3.5ft 8s 5s 13 16 mph 1026.3mb 72f 72f
8:50 3.5ft 10s 5s 16 18 mph 1025.7mb 72f 71f
7:50 3ft 10s 5s 16 18 mph 1025.5mb 72f 71f
6:50 3.5ft 8s 5s 16 18 mph 1025.4mb 72f 71f
5:50 3.5ft 9s 5s 13 18 mph 1025.2mb 72f 71f
4:50 3.5ft 9s 6s 16 18 mph 1024.7mb 72f 71f
3:50 3.5ft 10s 6s 16 18 mph 1024.9mb 72f 71f
2:50 3.5ft 8s 6s 16 18 mph 1025.4mb 72f 71f
1:50 3.5ft 8s 6s 13 18 mph 1025.5mb 72f 70f
12:50 3.5ft 8s 6s 13 16 mph 1025.5mb 72f 70f
lun 01/16 11:50 3.5ft 8s 6s 16 18 mph 1025.7mb 71f 70f
10:50 3.5ft 8s 7s 11 13 mph 1026.4mb 71f 70f
9:50 3.5ft 8s 7s 11 13 mph 1027mb 71f 70f
8:50 3.5ft 8s 7s 9 11 mph 1027.3mb 71f 70f
7:50 3.5ft 8s 7s 9 11 mph 1027.1mb 71f 70f
6:50 4ft 8s 7s 9 11 mph 1027mb 71f 70f
5:50 3.5ft 8s 7s 9 11 mph 1026.7mb 71f 69f
4:50 4ft 8s 7s 7 9 mph 1026.9mb 72f 69f
3:50 3.5ft 8s 7s 7 9 mph 1026.3mb 72f 70f
2:50 3.5ft 8s 7s 7 9 mph 1026.2mb 72f 70f
1:50 4ft 8s 7s 7 9 mph 1026.1mb 72f 69f
12:50 4ft 9s 7s 7 9 mph 1026.2mb 72f 69f
11:50 4ft 8s 7s 7 9 mph 1027mb 72f 69f
10:50 4ft 9s 7s 7 9 mph 1027.8mb 71f 69f
9:50 3.5ft 8s 7s 4 7 mph 1027.9mb 71f 69f
8:50 4ft 9s 7s 4 7 mph 1027.5mb 71f 69f
7:50 3.5ft 7s 7s 4
mph
1027mb 71f 69f
6:50 4ft 11s 7s  -  mph 1026.8mb 71f 68f
5:50 3.5ft 11s 6s 2 4 mph 1026.3mb 71f 68f
4:50 4ft 9s 6s 4 7 mph 1025.8mb 71f 68f
3:50 4ft 8s 6s 9 11 mph 1025.6mb 71f 68f
2:50 4.5ft 10s 6s 7 9 mph 1025.6mb 71f 68f
1:50 4.5ft 6s 6s 9 11 mph 1025.7mb 71f 68f
12:50 4.5ft 11s 6s 11 13 mph 1025.5mb 71f 68f